createdAt,value
2019-01-16T00:00:08.862Z,5.97
2019-01-16T00:03:39.477Z,5.23
2019-01-16T00:07:02.446Z,5.67
2019-01-16T00:10:27.652Z,4.30
2019-01-16T00:13:55.456Z,3.90
2019-01-16T00:17:11.472Z,4.83
2019-01-16T00:20:51.982Z,6.97
2019-01-16T00:24:07.846Z,5.77
2019-01-16T00:27:38.986Z,5.13
2019-01-16T00:31:07.343Z,4.73
2019-01-16T00:34:25.828Z,4.57
2019-01-16T00:38:06.484Z,4.70
2019-01-16T00:41:44.026Z,4.93
2019-01-16T00:45:09.000Z,5.43
2019-01-16T00:48:36.730Z,4.90
2019-01-16T00:52:04.752Z,5.63
2019-01-16T00:55:25.899Z,4.00
2019-01-16T00:59:03.226Z,7.17
2019-01-16T01:02:20.214Z,3.90
2019-01-16T01:05:47.804Z,4.47
2019-01-16T01:09:12.752Z,5.00
2019-01-16T01:12:37.841Z,4.27
2019-01-16T01:16:12.299Z,5.03
2019-01-16T01:19:30.650Z,4.43
2019-01-16T01:23:00.948Z,4.27
2019-01-16T01:26:18.066Z,5.20
2019-01-16T01:29:43.153Z,5.57
2019-01-16T01:33:14.558Z,5.40
2019-01-16T01:36:44.015Z,4.77
2019-01-16T01:40:04.699Z,4.17
2019-01-16T01:43:25.570Z,3.60
2019-01-16T01:46:51.186Z,4.70
2019-01-16T01:50:09.643Z,4.93
2019-01-16T01:53:50.035Z,4.83
2019-01-16T01:57:10.686Z,4.37
2019-01-16T02:00:49.244Z,4.67
2019-01-16T02:04:10.328Z,4.63
2019-01-16T02:07:31.338Z,3.83
2019-01-16T02:10:52.184Z,3.73
2019-01-16T02:14:21.455Z,5.43
2019-01-16T02:17:49.762Z,4.87
2019-01-16T02:21:29.953Z,4.43
2019-01-16T02:24:52.123Z,4.63
2019-01-16T02:28:13.546Z,4.00
2019-01-16T02:31:42.901Z,4.63
2019-01-16T02:35:05.042Z,4.00
2019-01-16T02:38:26.011Z,5.23
2019-01-16T02:41:50.844Z,4.90
2019-01-16T02:45:22.124Z,4.30
2019-01-16T02:48:46.920Z,4.67
2019-01-16T02:52:11.938Z,4.90
2019-01-16T02:55:36.854Z,4.93
2019-01-16T02:59:02.389Z,4.90
2019-01-16T03:02:42.679Z,4.83
2019-01-16T03:06:00.076Z,3.80
2019-01-16T03:09:36.210Z,4.43
2019-01-16T03:12:56.990Z,4.10
2019-01-16T03:16:08.671Z,5.10
2019-01-16T03:19:26.974Z,4.03
2019-01-16T03:22:55.117Z,4.40
2019-01-16T03:26:23.384Z,4.93
2019-01-16T03:30:01.057Z,5.77
2019-01-16T03:33:21.717Z,6.17
2019-01-16T03:36:42.509Z,5.90
2019-01-16T03:39:59.823Z,6.37
2019-01-16T03:43:17.934Z,5.83
2019-01-16T03:46:30.552Z,4.73
2019-01-16T03:53:30.401Z,6.77
2019-01-16T03:57:00.909Z,5.97
2019-01-16T04:00:24.890Z,6.87
2019-01-16T04:03:59.086Z,5.00
2019-01-16T04:07:24.790Z,6.27
2019-01-16T04:10:39.755Z,7.00
2019-01-16T04:14:00.522Z,4.57
2019-01-16T04:17:21.300Z,5.33
2019-01-16T04:20:58.569Z,5.87
2019-01-16T04:24:19.322Z,4.63
2019-01-16T04:27:32.675Z,4.80
2019-01-16T04:30:53.852Z,5.63
2019-01-16T04:34:16.015Z,5.80
2019-01-16T04:37:33.784Z,4.97
2019-01-16T04:40:49.382Z,5.70
2019-01-16T04:44:14.542Z,7.13
2019-01-16T04:47:39.449Z,7.70
2019-01-16T04:50:59.572Z,5.70
2019-01-16T04:54:18.913Z,5.73
2019-01-16T04:57:40.121Z,7.03
2019-01-16T05:01:05.066Z,5.53
2019-01-16T05:04:30.062Z,5.47
2019-01-16T05:08:01.127Z,6.13
2019-01-16T05:11:17.250Z,6.30
2019-01-16T05:14:31.324Z,4.83
2019-01-16T05:17:53.593Z,6.60
2019-01-16T05:21:14.467Z,5.70
2019-01-16T05:24:36.758Z,5.40
2019-01-16T05:27:58.629Z,4.83
2019-01-16T05:31:11.078Z,3.97
2019-01-16T05:34:36.131Z,5.13
2019-01-16T05:37:51.639Z,3.50
2019-01-16T05:41:13.922Z,4.67
2019-01-16T05:44:38.262Z,4.80
2019-01-16T05:47:48.788Z,4.03
2019-01-16T05:51:17.192Z,2.90
2019-01-16T05:54:38.305Z,3.70
2019-01-16T05:58:07.816Z,3.67
2019-01-16T06:01:34.095Z,3.47
2019-01-16T06:04:51.152Z,3.30
2019-01-16T06:08:19.125Z,2.60
2019-01-16T06:11:37.549Z,4.77
2019-01-16T06:15:15.052Z,2.37
2019-01-16T06:18:38.803Z,2.87
2019-01-16T06:22:12.876Z,2.40
2019-01-16T06:25:33.799Z,2.40
2019-01-16T06:29:02.025Z,2.40
2019-01-16T06:32:31.492Z,2.43
2019-01-16T06:36:06.421Z,3.40
2019-01-16T06:39:43.832Z,2.40
2019-01-16T06:43:15.213Z,2.77
2019-01-16T06:46:35.806Z,2.37
2019-01-16T06:50:16.467Z,2.53
2019-01-16T06:53:32.458Z,2.30
2019-01-16T06:57:03.473Z,2.80
2019-01-16T07:00:28.373Z,2.63
2019-01-16T07:04:05.861Z,1.73
2019-01-16T07:07:37.532Z,2.07
2019-01-16T07:10:58.540Z,2.40
2019-01-16T07:14:19.562Z,2.33
2019-01-16T07:17:50.785Z,3.93
2019-01-16T07:21:31.273Z,2.30
2019-01-16T07:25:05.618Z,2.23
2019-01-16T07:28:19.629Z,1.70
2019-01-16T07:31:48.098Z,1.90
2019-01-16T07:35:19.120Z,1.60
2019-01-16T07:38:41.282Z,2.03
2019-01-16T07:42:09.164Z,1.70
2019-01-16T07:45:46.865Z,1.70
2019-01-16T07:49:15.078Z,1.40
2019-01-16T07:52:38.828Z,1.53
2019-01-16T07:56:05.826Z,1.97
2019-01-16T07:59:30.501Z,1.80
2019-01-16T08:02:51.184Z,1.90
2019-01-16T08:06:08.692Z,1.97
2019-01-16T08:09:31.098Z,2.70
2019-01-16T08:13:11.790Z,1.80
2019-01-16T08:16:40.049Z,1.73
2019-01-16T08:20:00.957Z,1.20
2019-01-16T08:23:41.657Z,1.63
2019-01-16T08:27:04.884Z,4.33
2019-01-16T08:30:21.339Z,4.27
2019-01-16T08:33:49.884Z,11.07
2019-01-16T08:37:10.944Z,9.20
2019-01-16T08:40:33.290Z,5.80
2019-01-16T08:44:02.283Z,6.83
2019-01-16T08:47:33.411Z,7.90
2019-01-16T08:51:02.090Z,11.47
2019-01-16T08:54:23.211Z,11.40
2019-01-16T08:57:57.524Z,9.07
2019-01-16T09:01:34.760Z,8.23
2019-01-16T09:04:55.623Z,9.50
2019-01-16T09:08:20.951Z,8.77
2019-01-16T09:11:49.211Z,9.57
2019-01-16T09:15:14.017Z,9.80
2019-01-16T09:18:45.325Z,9.73
2019-01-16T09:22:02.142Z,8.53
2019-01-16T09:25:24.763Z,9.10
2019-01-16T09:28:45.464Z,8.00
2019-01-16T09:32:19.592Z,8.17
2019-01-16T09:35:41.713Z,10.47
2019-01-16T09:39:02.508Z,8.63
2019-01-16T09:42:25.254Z,9.60
2019-01-16T09:46:02.528Z,10.20
2019-01-16T09:49:28.657Z,10.23
2019-01-16T09:52:56.969Z,7.97
2019-01-16T09:56:18.233Z,8.37
2019-01-16T09:59:49.362Z,10.53
2019-01-16T10:03:30.079Z,10.47
2019-01-16T10:06:49.486Z,9.03
2019-01-16T10:10:12.098Z,8.03
2019-01-16T10:13:23.565Z,9.40
2019-01-16T10:16:44.541Z,8.97
2019-01-16T10:19:55.259Z,8.90
2019-01-16T10:23:32.800Z,8.63
2019-01-16T10:26:42.181Z,9.53
2019-01-16T10:29:57.828Z,10.47
2019-01-16T10:33:18.727Z,9.50
2019-01-16T10:36:39.496Z,9.80
2019-01-16T10:40:03.616Z,10.37
2019-01-16T10:43:29.059Z,10.53
2019-01-16T10:47:06.142Z,8.70
2019-01-16T10:50:28.430Z,10.43
2019-01-16T10:54:05.439Z,11.93
2019-01-16T10:57:20.779Z,9.83
2019-01-16T11:00:52.108Z,11.03
2019-01-16T11:04:13.084Z,10.23
2019-01-16T11:07:44.269Z,12.27
2019-01-16T11:11:16.210Z,11.33
2019-01-16T11:14:37.497Z,8.63
2019-01-16T11:21:11.429Z,11.57
2019-01-16T11:24:33.708Z,9.97
2019-01-16T11:28:01.819Z,10.57
2019-01-16T11:31:36.116Z,9.47
2019-01-16T11:34:57.220Z,10.23
2019-01-16T11:38:33.590Z,9.73
2019-01-16T11:41:54.675Z,9.23
2019-01-16T11:45:22.757Z,8.77
2019-01-16T11:49:03.522Z,9.30
2019-01-16T11:52:31.719Z,9.03
2019-01-16T11:55:56.692Z,10.87
2019-01-16T11:59:17.383Z,9.17
2019-01-16T12:02:38.616Z,9.17
2019-01-16T12:05:59.895Z,9.60
2019-01-16T12:09:22.584Z,8.47
2019-01-16T12:12:44.840Z,8.90
2019-01-16T12:16:25.492Z,10.10
2019-01-16T12:19:37.029Z,8.97
2019-01-16T12:22:46.880Z,9.83
2019-01-16T12:26:13.835Z,10.63
2019-01-16T12:29:34.107Z,7.80
2019-01-16T12:32:43.370Z,8.63
2019-01-16T12:36:00.774Z,9.53
2019-01-16T12:39:24.785Z,9.70
2019-01-16T12:42:42.336Z,8.03
2019-01-16T12:45:55.094Z,8.50
2019-01-16T12:49:17.757Z,8.97
2019-01-16T12:52:39.053Z,8.67
2019-01-16T12:55:59.832Z,9.40
2019-01-16T12:59:33.795Z,8.13
2019-01-16T13:02:49.354Z,10.97
2019-01-16T13:09:45.543Z,7.83
2019-01-16T13:13:06.370Z,10.23
2019-01-16T13:16:22.370Z,9.23
2019-01-16T13:19:56.640Z,7.37
2019-01-16T13:23:27.630Z,7.60
2019-01-16T13:26:43.465Z,8.73
2019-01-16T13:30:08.389Z,8.27
2019-01-16T13:33:28.448Z,8.70
2019-01-16T13:36:41.376Z,9.47
2019-01-16T13:40:01.383Z,9.17
2019-01-16T13:43:42.658Z,8.80
2019-01-16T13:47:07.704Z,6.97
2019-01-16T13:50:28.163Z,8.30
2019-01-16T13:53:53.172Z,8.83
2019-01-16T13:57:18.310Z,9.80
2019-01-16T14:00:40.939Z,10.70
2019-01-16T14:03:55.010Z,8.23
2019-01-16T14:07:15.970Z,8.83
2019-01-16T14:10:47.724Z,10.57
2019-01-16T14:14:08.487Z,8.27
2019-01-16T14:17:22.604Z,9.53
2019-01-16T14:20:41.833Z,8.20
2019-01-16T14:24:06.975Z,11.23
2019-01-16T14:27:29.657Z,9.90
2019-01-16T14:31:06.857Z,9.10
2019-01-16T14:34:31.796Z,8.27
2019-01-16T14:37:52.540Z,8.67
2019-01-16T14:41:23.496Z,8.23
2019-01-16T14:44:52.595Z,7.43
2019-01-16T14:48:05.807Z,8.93
2019-01-16T14:51:20.800Z,7.67
2019-01-16T14:54:52.090Z,7.27
2019-01-16T14:58:12.735Z,8.70
2019-01-16T15:01:36.519Z,8.93
2019-01-16T15:05:09.324Z,8.20
2019-01-16T15:08:31.545Z,8.63
2019-01-16T15:11:43.688Z,9.03
2019-01-16T15:15:14.634Z,8.00
2019-01-16T15:18:35.669Z,6.97
2019-01-16T15:21:57.849Z,7.60
2019-01-16T15:25:12.359Z,9.00
2019-01-16T15:28:33.387Z,8.93
2019-01-16T15:32:13.800Z,8.70
2019-01-16T15:35:38.895Z,9.37
2019-01-16T15:39:01.134Z,8.33
2019-01-16T15:42:27.387Z,9.07
2019-01-16T15:45:50.028Z,9.73
2019-01-16T15:49:11.328Z,6.80
2019-01-16T15:52:30.080Z,9.07
2019-01-16T15:55:43.851Z,8.37
2019-01-16T15:59:16.356Z,8.57
2019-01-16T16:02:32.080Z,9.27
2019-01-16T16:05:56.466Z,8.50
2019-01-16T16:09:21.357Z,7.30
2019-01-16T16:12:46.497Z,6.93
2019-01-16T16:16:14.689Z,7.00
2019-01-16T16:19:48.779Z,7.73
2019-01-16T16:23:17.152Z,8.47
2019-01-16T16:26:45.196Z,8.90
2019-01-16T16:30:06.290Z,6.87
2019-01-16T16:33:21.006Z,9.13
2019-01-16T16:36:38.812Z,7.33
2019-01-16T16:40:03.789Z,8.57
2019-01-16T16:43:28.596Z,7.57
2019-01-16T16:46:41.856Z,6.77
2019-01-16T16:50:04.154Z,8.93
2019-01-16T16:53:24.052Z,8.90
2019-01-16T16:56:52.407Z,8.43
2019-01-16T17:00:13.302Z,6.33
2019-01-16T17:03:48.275Z,8.57
2019-01-16T17:06:58.506Z,6.93
2019-01-16T17:10:35.856Z,6.07
2019-01-16T17:14:08.586Z,7.10
2019-01-16T17:17:30.616Z,7.90
2019-01-16T17:20:51.930Z,9.03
2019-01-16T17:24:05.277Z,8.30
2019-01-16T17:27:31.330Z,7.97
2019-01-16T17:30:53.663Z,9.00
2019-01-16T17:34:06.973Z,9.90
2019-01-16T17:37:28.916Z,8.63
2019-01-16T17:40:56.848Z,9.83
2019-01-16T17:44:17.584Z,8.90
2019-01-16T17:47:38.254Z,7.90
2019-01-16T17:51:12.407Z,8.27
2019-01-16T17:54:40.610Z,8.07
2019-01-16T17:58:06.057Z,10.20
2019-01-16T18:01:23.420Z,10.70
2019-01-16T18:04:46.139Z,8.53
2019-01-16T18:08:07.514Z,8.60
2019-01-16T18:11:36.189Z,8.23
2019-01-16T18:14:53.828Z,7.73
2019-01-16T18:18:19.063Z,9.07
2019-01-16T18:21:41.870Z,8.80
2019-01-16T18:24:53.637Z,9.37
2019-01-16T18:28:14.448Z,9.33
2019-01-16T18:31:35.263Z,9.03
2019-01-16T18:35:00.497Z,9.53
2019-01-16T18:38:21.245Z,9.50
2019-01-16T18:41:45.357Z,9.03
2019-01-16T18:45:14.081Z,8.40
2019-01-16T18:48:36.645Z,6.93
2019-01-16T18:52:00.114Z,7.60
2019-01-16T18:55:32.132Z,9.33
2019-01-16T18:58:49.954Z,8.73
2019-01-16T19:02:10.973Z,7.47
2019-01-16T19:05:27.219Z,8.60
2019-01-16T19:09:04.765Z,6.20
2019-01-16T19:12:26.843Z,5.93
2019-01-16T19:15:44.294Z,6.77
2019-01-16T19:19:01.062Z,6.60
2019-01-16T19:22:18.407Z,5.77
2019-01-16T19:25:40.659Z,7.33
2019-01-16T19:29:06.521Z,7.67
2019-01-16T19:32:18.046Z,7.43
2019-01-16T19:35:40.671Z,8.17
2019-01-16T19:38:53.921Z,6.83
2019-01-16T19:42:15.923Z,6.93
2019-01-16T19:45:38.435Z,5.90
2019-01-16T19:48:59.477Z,5.60
2019-01-16T19:52:28.007Z,5.73
2019-01-16T19:55:56.497Z,5.63
2019-01-16T19:59:38.059Z,4.60
2019-01-16T20:03:00.734Z,4.10
2019-01-16T20:06:13.528Z,4.03
2019-01-16T20:09:34.479Z,3.50
2019-01-16T20:13:11.754Z,4.93
2019-01-16T20:16:40.434Z,3.40
2019-01-16T20:20:11.669Z,3.63
2019-01-16T20:23:48.890Z,4.20
2019-01-16T20:27:17.226Z,3.33
2019-01-16T20:30:42.487Z,3.43
2019-01-16T20:34:01.290Z,4.43
2019-01-16T20:37:26.351Z,5.23
2019-01-16T20:40:51.650Z,5.33
2019-01-16T20:44:05.449Z,3.80
2019-01-16T20:47:26.376Z,4.40
2019-01-16T20:50:47.665Z,3.53
2019-01-16T20:53:59.316Z,3.83
2019-01-16T20:57:36.929Z,3.53
2019-01-16T21:00:58.288Z,3.97
2019-01-16T21:04:19.482Z,4.07
2019-01-16T21:07:33.316Z,3.63
2019-01-16T21:10:45.874Z,3.53
2019-01-16T21:14:08.183Z,3.30
2019-01-16T21:17:29.333Z,3.67
2019-01-16T21:20:57.780Z,3.90
2019-01-16T21:24:23.354Z,3.40
2019-01-16T21:27:45.852Z,4.07
2019-01-16T21:31:01.702Z,4.07
2019-01-16T21:34:22.733Z,2.63
2019-01-16T21:37:36.073Z,3.50
2019-01-16T21:41:04.442Z,3.17
2019-01-16T21:44:27.176Z,2.73
2019-01-16T21:47:58.454Z,4.30
2019-01-16T21:51:39.370Z,3.30
2019-01-16T21:55:00.354Z,2.47
2019-01-16T21:58:22.835Z,2.80
2019-01-16T22:01:37.988Z,2.70
2019-01-16T22:05:15.330Z,3.83
2019-01-16T22:08:28.924Z,3.63
2019-01-16T22:11:44.344Z,3.30
2019-01-16T22:14:57.822Z,3.17
2019-01-16T22:18:22.049Z,3.37
2019-01-16T22:21:38.967Z,2.80
2019-01-16T22:25:00.223Z,2.00
2019-01-16T22:28:29.629Z,3.40
2019-01-16T22:31:52.015Z,3.13
2019-01-16T22:35:20.670Z,3.37
2019-01-16T22:38:41.705Z,2.37
2019-01-16T22:42:02.683Z,2.83
2019-01-16T22:45:43.837Z,2.40
2019-01-16T22:48:54.488Z,2.40
2019-01-16T22:52:15.456Z,2.37
2019-01-16T22:55:41.295Z,3.37
2019-01-16T22:59:01.439Z,2.87
2019-01-16T23:02:33.543Z,2.67
2019-01-16T23:05:51.720Z,2.57
2019-01-16T23:09:14.212Z,2.40
2019-01-16T23:12:34.977Z,2.50
2019-01-16T23:15:48.847Z,2.17
2019-01-16T23:19:26.337Z,2.67
2019-01-16T23:22:41.078Z,3.07
2019-01-16T23:26:12.370Z,2.50
2019-01-16T23:29:30.694Z,3.40
2019-01-16T23:32:53.053Z,2.83
2019-01-16T23:36:15.354Z,3.23
2019-01-16T23:39:37.599Z,3.17
2019-01-16T23:42:50.529Z,3.57
2019-01-16T23:46:11.279Z,2.43
2019-01-16T23:49:36.431Z,2.80
2019-01-16T23:52:46.732Z,3.10
2019-01-16T23:56:23.970Z,3.37
2019-01-16T23:59:55.285Z,4.37
